createdAt,value
2018-11-26T00:00:15.243Z,46.00
2018-11-26T00:02:43.902Z,46.10
2018-11-26T00:05:12.346Z,46.00
2018-11-26T00:07:40.850Z,46.10
2018-11-26T00:10:20.651Z,46.10
2018-11-26T00:12:49.135Z,46.10
2018-11-26T00:15:17.740Z,46.00
2018-11-26T00:17:46.394Z,46.00
2018-11-26T00:20:15.043Z,46.00
2018-11-26T00:22:43.509Z,46.10
2018-11-26T00:25:12.034Z,46.10
2018-11-26T00:27:40.678Z,46.10
2018-11-26T00:30:09.147Z,46.10
2018-11-26T00:32:37.722Z,46.00
2018-11-26T00:35:06.424Z,46.00
2018-11-26T00:37:35.050Z,46.10
2018-11-26T00:40:03.650Z,46.10
2018-11-26T00:42:32.133Z,46.10
2018-11-26T00:45:00.613Z,46.10
2018-11-26T00:47:29.342Z,46.10
2018-11-26T00:49:57.874Z,46.20
2018-11-26T00:52:26.505Z,46.10
2018-11-26T00:54:54.963Z,46.10
2018-11-26T00:57:23.446Z,46.20
2018-11-26T00:59:51.916Z,46.20
2018-11-26T01:02:20.355Z,46.20
2018-11-26T01:04:49.258Z,46.20
2018-11-26T01:07:17.880Z,46.20
2018-11-26T01:09:46.310Z,46.30
2018-11-26T01:12:14.775Z,46.30
2018-11-26T01:14:43.417Z,46.30
2018-11-26T01:17:11.907Z,46.20
2018-11-26T01:19:40.565Z,46.30
2018-11-26T01:22:09.359Z,46.20
2018-11-26T01:24:38.126Z,46.30
2018-11-26T01:27:06.731Z,46.30
2018-11-26T01:29:35.178Z,46.30
2018-11-26T01:32:03.611Z,46.30
2018-11-26T01:34:32.235Z,46.30
2018-11-26T01:37:00.670Z,46.30
2018-11-26T01:39:29.421Z,46.30
2018-11-26T01:41:58.120Z,46.30
2018-11-26T01:44:26.736Z,46.30
2018-11-26T01:46:55.221Z,46.30
2018-11-26T01:49:23.837Z,46.30
2018-11-26T01:51:52.302Z,46.30
2018-11-26T01:54:21.002Z,46.10
2018-11-26T01:56:50.492Z,46.40
2018-11-26T01:59:19.022Z,46.30
2018-11-26T02:01:47.694Z,46.40
2018-11-26T02:04:16.266Z,46.40
2018-11-26T02:06:44.919Z,46.30
2018-11-26T02:09:13.410Z,46.90
2018-11-26T02:11:41.929Z,46.40
2018-11-26T02:14:10.379Z,46.40
2018-11-26T02:16:38.898Z,46.40
2018-11-26T02:19:07.404Z,46.40
2018-11-26T02:21:36.024Z,46.40
2018-11-26T02:24:04.482Z,46.50
2018-11-26T02:26:32.955Z,46.50
2018-11-26T02:29:01.528Z,46.50
2018-11-26T02:31:30.050Z,47.10
2018-11-26T02:33:58.741Z,46.50
2018-11-26T02:36:27.166Z,46.50
2018-11-26T02:38:55.604Z,46.50
2018-11-26T02:41:24.215Z,46.50
2018-11-26T02:43:52.689Z,46.50
2018-11-26T02:46:21.292Z,46.50
2018-11-26T02:48:49.863Z,46.50
2018-11-26T02:51:18.492Z,46.60
2018-11-26T02:53:46.987Z,46.50
2018-11-26T02:56:15.509Z,46.50
2018-11-26T02:58:44.166Z,46.50
2018-11-26T03:01:12.773Z,46.60
2018-11-26T03:03:42.789Z,46.60
2018-11-26T03:06:11.467Z,46.70
2018-11-26T03:08:40.086Z,46.80
2018-11-26T03:11:09.110Z,46.80
2018-11-26T03:13:37.613Z,46.80
2018-11-26T03:16:06.753Z,46.80
2018-11-26T03:18:35.411Z,46.80
2018-11-26T03:21:04.189Z,46.80
2018-11-26T03:23:32.674Z,46.90
2018-11-26T03:26:01.262Z,47.00
2018-11-26T03:28:30.006Z,46.90
2018-11-26T03:30:58.658Z,47.00
2018-11-26T03:33:27.325Z,47.10
2018-11-26T03:35:56.106Z,47.10
2018-11-26T03:38:39.633Z,47.10
2018-11-26T03:41:08.211Z,47.20
2018-11-26T03:43:36.918Z,47.20
2018-11-26T03:46:05.756Z,47.20
2018-11-26T03:48:34.312Z,47.20
2018-11-26T03:51:02.970Z,47.30
2018-11-26T03:53:31.632Z,47.80
2018-11-26T03:56:00.271Z,47.20
2018-11-26T03:58:28.941Z,47.20
2018-11-26T04:00:57.619Z,47.20
2018-11-26T04:03:26.262Z,47.20
2018-11-26T04:05:54.758Z,47.40
2018-11-26T04:08:23.300Z,47.40
2018-11-26T04:10:51.898Z,47.40
2018-11-26T04:13:20.544Z,47.50
2018-11-26T04:15:49.091Z,47.50
2018-11-26T04:18:17.729Z,47.50
2018-11-26T04:20:46.185Z,47.60
2018-11-26T04:23:14.765Z,47.50
2018-11-26T04:25:43.406Z,47.60
2018-11-26T04:28:11.889Z,47.60
2018-11-26T04:30:40.439Z,47.60
2018-11-26T04:33:09.084Z,47.60
2018-11-26T04:35:37.596Z,47.70
2018-11-26T04:38:06.262Z,47.60
2018-11-26T04:40:34.968Z,47.60
2018-11-26T04:43:03.415Z,47.70
2018-11-26T04:45:31.894Z,47.70
2018-11-26T04:48:00.346Z,47.70
2018-11-26T04:50:29.029Z,47.70
2018-11-26T04:52:58.919Z,47.70
2018-11-26T04:55:28.752Z,47.70
2018-11-26T04:57:57.352Z,47.80
2018-11-26T05:00:25.884Z,47.80
2018-11-26T05:02:54.507Z,47.80
2018-11-26T05:05:22.990Z,47.70
2018-11-26T05:07:51.522Z,47.90
2018-11-26T05:10:20.148Z,47.90
2018-11-26T05:12:48.869Z,47.90
2018-11-26T05:15:17.409Z,47.90
2018-11-26T05:17:46.026Z,47.90
2018-11-26T05:20:16.069Z,48.00
2018-11-26T05:22:45.078Z,48.00
2018-11-26T05:25:13.698Z,47.90
2018-11-26T05:27:42.191Z,48.00
2018-11-26T05:30:12.343Z,47.90
2018-11-26T05:32:42.135Z,48.00
2018-11-26T05:35:11.509Z,48.00
2018-11-26T05:37:40.133Z,48.00
2018-11-26T05:40:12.653Z,48.00
2018-11-26T05:42:41.716Z,48.10
2018-11-26T05:45:11.919Z,48.10
2018-11-26T05:47:40.623Z,48.00
2018-11-26T05:50:11.075Z,48.00
2018-11-26T05:52:40.791Z,48.00
2018-11-26T05:55:17.138Z,48.00
2018-11-26T05:57:46.744Z,48.10
2018-11-26T06:00:26.182Z,48.10
2018-11-26T06:02:55.038Z,48.10
2018-11-26T06:05:23.537Z,48.10
2018-11-26T06:07:52.431Z,48.10
2018-11-26T06:10:21.109Z,48.10
2018-11-26T06:12:49.848Z,48.20
2018-11-26T06:15:18.686Z,48.20
2018-11-26T06:17:47.245Z,48.20
2018-11-26T06:20:16.018Z,48.40
2018-11-26T06:22:48.002Z,48.40
2018-11-26T06:25:18.672Z,48.40
2018-11-26T06:27:47.587Z,48.70
2018-11-26T06:30:17.354Z,48.60
2018-11-26T06:32:45.880Z,48.50
2018-11-26T06:35:19.612Z,48.60
2018-11-26T06:37:48.385Z,48.70
2018-11-26T06:40:17.115Z,48.60
2018-11-26T06:42:46.799Z,48.70
2018-11-26T06:45:16.622Z,48.90
2018-11-26T06:47:45.251Z,48.90
2018-11-26T06:50:15.171Z,48.90
2018-11-26T06:52:44.370Z,49.50
2018-11-26T06:55:14.981Z,49.40
2018-11-26T06:57:44.434Z,49.00
2018-11-26T07:00:15.887Z,48.90
2018-11-26T07:02:45.394Z,48.80
2018-11-26T07:05:20.976Z,48.70
2018-11-26T07:07:49.799Z,48.70
2018-11-26T07:10:19.233Z,48.60
2018-11-26T07:12:47.885Z,48.60
2018-11-26T07:15:17.570Z,48.50
2018-11-26T07:17:46.081Z,48.50
2018-11-26T07:20:16.875Z,48.50
2018-11-26T07:22:45.631Z,48.40
2018-11-26T07:25:15.007Z,48.40
2018-11-26T07:27:44.780Z,48.30
2018-11-26T07:30:15.426Z,48.30
2018-11-26T07:32:45.151Z,48.30
2018-11-26T07:35:14.888Z,48.30
2018-11-26T07:37:43.492Z,48.30
2018-11-26T07:40:15.069Z,48.20
2018-11-26T07:42:55.028Z,48.20
2018-11-26T07:45:23.531Z,48.20
2018-11-26T07:47:52.674Z,48.20
2018-11-26T07:50:21.391Z,48.10
2018-11-26T07:52:50.015Z,48.10
2018-11-26T07:55:20.150Z,48.10
2018-11-26T07:57:48.710Z,48.10
2018-11-26T08:00:19.030Z,48.10
2018-11-26T08:02:47.970Z,48.10
2018-11-26T08:05:18.492Z,48.00
2018-11-26T08:07:47.225Z,48.00
2018-11-26T08:10:19.497Z,48.00
2018-11-26T08:12:49.001Z,48.00
2018-11-26T08:15:21.025Z,48.00
2018-11-26T08:17:49.535Z,48.00
2018-11-26T08:20:18.250Z,48.00
2018-11-26T08:22:46.780Z,48.00
2018-11-26T08:25:16.862Z,48.00
2018-11-26T08:27:46.257Z,48.00
2018-11-26T08:30:17.127Z,47.90
2018-11-26T08:32:50.073Z,47.90
2018-11-26T08:35:18.602Z,47.90
2018-11-26T08:37:52.401Z,47.90
2018-11-26T08:40:25.015Z,47.90
2018-11-26T08:42:59.654Z,47.90
2018-11-26T08:45:34.305Z,47.90
2018-11-26T08:48:06.172Z,47.90
2018-11-26T08:50:34.755Z,47.90
2018-11-26T08:53:03.540Z,47.90
2018-11-26T08:55:32.007Z,47.90
2018-11-26T08:58:01.421Z,47.90
2018-11-26T09:00:30.608Z,47.90
2018-11-26T09:03:03.059Z,47.80
2018-11-26T09:05:40.713Z,47.90
2018-11-26T09:08:09.394Z,47.90
2018-11-26T09:10:38.254Z,47.90
2018-11-26T09:13:06.816Z,47.90
2018-11-26T09:15:35.305Z,47.90
2018-11-26T09:18:04.804Z,47.90
2018-11-26T09:20:33.305Z,48.00
2018-11-26T09:23:01.929Z,48.00
2018-11-26T09:25:30.708Z,48.00
2018-11-26T09:27:59.822Z,48.00
2018-11-26T09:30:28.556Z,48.00
2018-11-26T09:32:57.084Z,48.00
2018-11-26T09:35:25.659Z,48.00
2018-11-26T09:37:54.100Z,48.00
2018-11-26T09:40:22.561Z,48.00
2018-11-26T09:42:51.067Z,48.00
2018-11-26T09:45:19.904Z,48.00
2018-11-26T09:47:48.732Z,48.10
2018-11-26T09:50:19.511Z,48.10
2018-11-26T09:52:48.539Z,48.50
2018-11-26T09:55:17.246Z,48.10
2018-11-26T09:57:45.696Z,48.20
2018-11-26T10:00:15.225Z,48.10
2018-11-26T10:02:45.184Z,48.10
2018-11-26T10:05:15.053Z,48.10
2018-11-26T10:07:43.476Z,48.10
2018-11-26T10:10:12.588Z,48.10
2018-11-26T10:12:41.646Z,48.10
2018-11-26T10:15:16.373Z,48.10
2018-11-26T10:17:44.999Z,48.10
2018-11-26T10:20:13.646Z,48.20
2018-11-26T10:22:43.346Z,48.10
2018-11-26T10:25:13.369Z,48.10
2018-11-26T10:27:41.874Z,48.20
2018-11-26T10:30:12.162Z,48.70
2018-11-26T10:32:40.910Z,48.10
2018-11-26T10:35:11.191Z,48.20
2018-11-26T10:37:39.787Z,48.10
2018-11-26T10:40:14.661Z,48.10
2018-11-26T10:42:43.183Z,48.10
2018-11-26T10:45:13.467Z,48.10
2018-11-26T10:47:42.314Z,48.30
2018-11-26T10:50:12.846Z,48.10
2018-11-26T10:52:42.944Z,48.10
2018-11-26T10:55:13.113Z,48.10
2018-11-26T10:57:41.599Z,48.20
2018-11-26T11:00:17.115Z,48.10
2018-11-26T11:02:45.954Z,48.10
2018-11-26T11:05:14.675Z,48.10
2018-11-26T11:07:43.140Z,48.10
2018-11-26T11:10:14.080Z,48.10
2018-11-26T11:12:42.482Z,48.20
2018-11-26T11:15:12.068Z,48.10
2018-11-26T11:17:40.667Z,48.10
2018-11-26T11:20:12.142Z,48.10
2018-11-26T11:22:40.642Z,48.10
2018-11-26T11:25:10.522Z,48.10
2018-11-26T11:27:39.293Z,48.10
2018-11-26T11:30:12.788Z,48.10
2018-11-26T11:32:41.600Z,48.10
2018-11-26T11:35:11.595Z,48.10
2018-11-26T11:37:40.795Z,48.10
2018-11-26T11:40:20.547Z,48.10
2018-11-26T11:42:49.699Z,48.10
2018-11-26T11:45:18.960Z,48.10
2018-11-26T11:47:47.724Z,48.10
2018-11-26T11:50:18.583Z,48.10
2018-11-26T11:52:47.317Z,48.10
2018-11-26T11:55:18.937Z,48.10
2018-11-26T11:57:47.517Z,48.20
2018-11-26T12:00:38.831Z,48.20
2018-11-26T12:03:13.835Z,48.10
2018-11-26T12:05:42.322Z,48.20
2018-11-26T12:08:10.896Z,48.20
2018-11-26T12:10:39.951Z,48.30
2018-11-26T12:13:10.332Z,48.20
2018-11-26T12:15:40.582Z,48.20
2018-11-26T12:18:10.423Z,48.10
2018-11-26T12:20:39.023Z,48.10
2018-11-26T12:23:07.542Z,48.20
2018-11-26T12:25:36.935Z,48.20
2018-11-26T12:28:05.485Z,48.40
2018-11-26T12:30:35.828Z,48.40
2018-11-26T12:33:05.249Z,48.50
2018-11-26T12:35:34.284Z,48.40
2018-11-26T12:38:02.816Z,48.40
2018-11-26T12:40:32.442Z,48.50
2018-11-26T12:43:02.447Z,48.50
2018-11-26T12:45:33.516Z,48.50
2018-11-26T12:48:02.295Z,48.50
2018-11-26T12:50:31.443Z,48.50
2018-11-26T12:52:59.928Z,48.60
2018-11-26T12:55:28.416Z,48.60
2018-11-26T12:57:57.573Z,48.60
2018-11-26T13:00:27.338Z,48.80
2018-11-26T13:02:57.521Z,48.70
2018-11-26T13:05:26.092Z,48.80
2018-11-26T13:07:54.708Z,48.90
2018-11-26T13:10:23.736Z,48.90
2018-11-26T13:12:52.675Z,48.80
2018-11-26T13:15:27.416Z,48.90
2018-11-26T13:17:56.100Z,49.20
2018-11-26T13:20:26.551Z,49.00
2018-11-26T13:22:55.887Z,49.30
2018-11-26T13:25:25.930Z,49.40
2018-11-26T13:27:57.394Z,49.40
2018-11-26T13:30:28.059Z,49.50
2018-11-26T13:33:00.795Z,49.80
2018-11-26T13:35:29.420Z,49.60
2018-11-26T13:37:58.107Z,49.60
2018-11-26T13:40:26.657Z,49.40
2018-11-26T13:42:55.219Z,49.40
2018-11-26T13:45:29.608Z,49.50
2018-11-26T13:47:58.526Z,49.40
2018-11-26T13:50:28.863Z,49.30
2018-11-26T13:52:57.564Z,49.20
2018-11-26T13:55:26.031Z,49.20
2018-11-26T13:57:54.640Z,49.10
2018-11-26T14:00:23.117Z,49.10
2018-11-26T14:02:51.724Z,49.00
2018-11-26T14:05:20.253Z,48.90
2018-11-26T14:07:49.222Z,48.90
2018-11-26T14:10:22.706Z,48.80
2018-11-26T14:12:55.940Z,48.70
2018-11-26T14:15:24.726Z,48.70
2018-11-26T14:17:53.514Z,48.60
2018-11-26T14:20:22.001Z,48.50
2018-11-26T14:22:50.472Z,48.50
2018-11-26T14:25:20.049Z,48.30
2018-11-26T14:27:48.861Z,48.30
2018-11-26T14:30:20.235Z,48.20
2018-11-26T14:32:48.796Z,47.90
2018-11-26T14:35:17.491Z,47.90
2018-11-26T14:37:47.487Z,47.80
2018-11-26T14:40:19.912Z,47.80
2018-11-26T14:42:48.415Z,47.70
2018-11-26T14:45:17.000Z,47.70
2018-11-26T14:47:45.676Z,47.60
2018-11-26T14:50:15.382Z,47.20
2018-11-26T14:52:46.084Z,47.40
2018-11-26T14:55:16.590Z,47.20
2018-11-26T14:57:45.489Z,47.00
2018-11-26T15:00:16.471Z,46.70
2018-11-26T15:02:45.135Z,47.00
2018-11-26T15:05:13.847Z,46.80
2018-11-26T15:07:42.413Z,47.10
2018-11-26T15:10:15.014Z,47.00
2018-11-26T15:12:44.115Z,46.90
2018-11-26T15:15:14.755Z,47.10
2018-11-26T15:17:43.901Z,47.10
2018-11-26T15:20:18.195Z,47.00
2018-11-26T15:22:49.197Z,47.10
2018-11-26T15:25:20.196Z,47.20
2018-11-26T15:27:48.777Z,47.00
2018-11-26T15:30:18.684Z,47.20
2018-11-26T15:32:48.708Z,47.00
2018-11-26T15:35:21.043Z,46.90
2018-11-26T15:37:49.869Z,46.90
2018-11-26T15:40:20.870Z,46.90
2018-11-26T15:42:49.992Z,46.80
2018-11-26T15:45:27.521Z,46.70
2018-11-26T15:47:59.695Z,46.70
2018-11-26T15:50:28.772Z,47.30
2018-11-26T15:52:57.447Z,46.50
2018-11-26T15:55:26.716Z,47.20
2018-11-26T15:57:57.088Z,46.50
2018-11-26T16:00:28.275Z,46.60
2018-11-26T16:02:56.779Z,46.40
2018-11-26T16:05:27.574Z,47.00
2018-11-26T16:07:57.753Z,46.70
2018-11-26T16:10:27.556Z,46.40
2018-11-26T16:12:57.448Z,46.60
2018-11-26T16:15:28.577Z,46.40
2018-11-26T16:17:59.309Z,46.40
2018-11-26T16:20:29.530Z,47.00
2018-11-26T16:22:59.359Z,46.30
2018-11-26T16:25:28.643Z,46.50
2018-11-26T16:27:57.696Z,46.30
2018-11-26T16:30:26.192Z,46.10
2018-11-26T16:32:56.007Z,46.10
2018-11-26T16:35:28.784Z,46.10
2018-11-26T16:37:59.608Z,46.10
2018-11-26T16:40:28.645Z,46.10
2018-11-26T16:42:57.794Z,45.90
2018-11-26T16:45:29.241Z,46.00
2018-11-26T16:47:58.683Z,45.90
2018-11-26T16:50:28.532Z,45.80
2018-11-26T16:52:57.311Z,45.80
2018-11-26T16:55:25.892Z,45.80
2018-11-26T16:57:54.752Z,45.80
2018-11-26T17:00:26.497Z,45.80
2018-11-26T17:02:59.063Z,45.20
2018-11-26T17:05:33.938Z,45.60
2018-11-26T17:08:02.883Z,45.70
2018-11-26T17:10:31.460Z,45.60
2018-11-26T17:13:00.571Z,45.40
2018-11-26T17:15:29.079Z,45.50
2018-11-26T17:17:57.920Z,45.50
2018-11-26T17:20:26.599Z,45.50
2018-11-26T17:22:55.214Z,45.60
2018-11-26T17:25:24.673Z,45.80
2018-11-26T17:27:53.160Z,46.10
2018-11-26T17:30:24.901Z,46.50
2018-11-26T17:32:57.715Z,46.90
2018-11-26T17:35:26.236Z,47.60
2018-11-26T17:37:55.867Z,47.90
2018-11-26T17:40:25.152Z,49.10
2018-11-26T17:42:53.979Z,49.50
2018-11-26T17:45:23.186Z,50.80
2018-11-26T17:47:55.321Z,53.00
2018-11-26T17:50:26.735Z,53.20
2018-11-26T17:52:57.674Z,53.50
2018-11-26T17:55:26.428Z,53.70
2018-11-26T17:57:55.499Z,54.20
2018-11-26T18:00:29.224Z,54.00
2018-11-26T18:02:58.135Z,53.80
2018-11-26T18:05:28.138Z,53.10
2018-11-26T18:08:07.199Z,53.60
2018-11-26T18:10:53.771Z,53.30
2018-11-26T18:13:22.415Z,53.10
2018-11-26T18:15:50.883Z,53.10
2018-11-26T18:18:20.609Z,52.60
2018-11-26T18:20:49.585Z,52.50
2018-11-26T18:23:19.999Z,52.40
2018-11-26T18:25:49.685Z,52.60
2018-11-26T18:28:21.700Z,52.70
2018-11-26T18:30:56.442Z,52.60
2018-11-26T18:33:25.083Z,52.50
2018-11-26T18:35:53.575Z,52.60
2018-11-26T18:38:23.048Z,52.30
2018-11-26T18:40:52.879Z,52.40
2018-11-26T18:43:22.424Z,52.80
2018-11-26T18:45:50.948Z,52.30
2018-11-26T18:48:19.669Z,52.30
2018-11-26T18:50:49.338Z,52.30
2018-11-26T18:53:18.434Z,52.20
2018-11-26T18:55:47.163Z,52.40
2018-11-26T18:58:15.841Z,52.50
2018-11-26T19:00:47.472Z,52.50
2018-11-26T19:03:19.549Z,52.30
2018-11-26T19:05:50.873Z,52.30
2018-11-26T19:08:19.520Z,52.30
2018-11-26T19:10:49.741Z,52.30
2018-11-26T19:13:21.116Z,52.00
2018-11-26T19:15:51.283Z,52.10
2018-11-26T19:18:26.187Z,51.90
2018-11-26T19:20:55.095Z,51.80
2018-11-26T19:23:25.184Z,52.00
2018-11-26T19:25:54.031Z,52.00
2018-11-26T19:28:23.824Z,52.00
2018-11-26T19:30:52.417Z,52.00
2018-11-26T19:33:21.171Z,51.70
2018-11-26T19:35:50.986Z,51.80
2018-11-26T19:38:19.674Z,51.70
2018-11-26T19:40:48.935Z,51.70
2018-11-26T19:43:18.810Z,51.70
2018-11-26T19:45:49.619Z,51.60
2018-11-26T19:48:18.365Z,51.60
2018-11-26T19:50:47.097Z,51.60
2018-11-26T19:53:15.671Z,51.60
2018-11-26T19:55:45.478Z,51.60
2018-11-26T19:58:14.226Z,51.60
2018-11-26T20:00:42.780Z,51.60
2018-11-26T20:03:16.253Z,51.60
2018-11-26T20:05:51.720Z,51.60
2018-11-26T20:08:21.203Z,51.50
2018-11-26T20:10:51.335Z,51.60
2018-11-26T20:13:20.831Z,51.50
2018-11-26T20:15:49.857Z,51.60
2018-11-26T20:18:18.672Z,51.50
2018-11-26T20:20:47.324Z,51.40
2018-11-26T20:23:16.318Z,51.10
2018-11-26T20:25:46.212Z,51.50
2018-11-26T20:28:14.257Z,51.40
2018-11-26T20:30:43.999Z,51.30
2018-11-26T20:33:12.587Z,51.30
2018-11-26T20:35:41.215Z,51.20
2018-11-26T20:38:11.737Z,51.30
2018-11-26T20:40:40.515Z,51.30
2018-11-26T20:43:10.486Z,51.30
2018-11-26T20:45:44.169Z,51.40
2018-11-26T20:48:12.702Z,51.40
2018-11-26T20:50:44.194Z,51.50
2018-11-26T20:53:12.704Z,51.50
2018-11-26T20:55:41.255Z,51.50
2018-11-26T20:58:09.873Z,51.60
2018-11-26T21:00:40.425Z,51.60
2018-11-26T21:03:10.974Z,51.60
2018-11-26T21:05:40.488Z,51.60
2018-11-26T21:08:09.152Z,51.30
2018-11-26T21:10:37.906Z,51.70
2018-11-26T21:13:07.046Z,51.80
2018-11-26T21:15:35.955Z,51.80
2018-11-26T21:18:08.401Z,52.00
2018-11-26T21:20:48.246Z,51.90
2018-11-26T21:23:22.550Z,51.80
2018-11-26T21:25:51.241Z,51.70
2018-11-26T21:28:21.398Z,51.60
2018-11-26T21:30:52.286Z,51.40
2018-11-26T21:33:21.089Z,51.30
2018-11-26T21:35:51.852Z,51.10
2018-11-26T21:38:24.198Z,51.10
2018-11-26T21:40:53.262Z,50.90
2018-11-26T21:43:21.756Z,50.80
2018-11-26T21:45:54.144Z,50.70
2018-11-26T21:48:22.956Z,51.00
2018-11-26T21:50:51.465Z,50.60
2018-11-26T21:53:20.097Z,50.50
2018-11-26T21:55:48.719Z,50.40
2018-11-26T21:58:17.253Z,50.30
2018-11-26T22:00:46.432Z,50.30
2018-11-26T22:03:15.314Z,50.20
2018-11-26T22:05:44.628Z,50.00
2018-11-26T22:08:13.415Z,49.90
2018-11-26T22:10:42.998Z,49.90
2018-11-26T22:13:15.605Z,50.50
2018-11-26T22:15:45.027Z,49.80
2018-11-26T22:18:13.654Z,49.80
2018-11-26T22:20:42.330Z,49.80
2018-11-26T22:23:11.162Z,49.70
2018-11-26T22:25:40.412Z,49.80
2018-11-26T22:28:10.888Z,49.80
2018-11-26T22:30:40.323Z,49.70
2018-11-26T22:33:09.198Z,49.70
2018-11-26T22:35:37.769Z,49.70
2018-11-26T22:38:07.038Z,49.70
2018-11-26T22:40:35.671Z,49.70
2018-11-26T22:43:04.648Z,49.60
2018-11-26T22:45:34.211Z,49.60
2018-11-26T22:48:09.603Z,49.60
2018-11-26T22:50:41.607Z,49.60
2018-11-26T22:53:10.517Z,49.60
2018-11-26T22:55:40.007Z,49.60
2018-11-26T22:58:10.128Z,49.50
2018-11-26T23:00:48.535Z,49.60
2018-11-26T23:03:19.051Z,49.60
2018-11-26T23:05:47.567Z,49.60
2018-11-26T23:08:16.189Z,49.70
2018-11-26T23:10:44.882Z,49.60
2018-11-26T23:13:13.559Z,49.60
2018-11-26T23:15:42.380Z,49.70
2018-11-26T23:18:10.848Z,49.70
2018-11-26T23:20:39.324Z,49.70
2018-11-26T23:23:07.892Z,49.70
2018-11-26T23:25:36.357Z,49.70
2018-11-26T23:28:04.839Z,49.80
2018-11-26T23:30:33.326Z,49.80
2018-11-26T23:33:02.971Z,49.80
2018-11-26T23:35:31.461Z,49.80
2018-11-26T23:38:00.083Z,49.80
2018-11-26T23:40:28.581Z,49.80
2018-11-26T23:42:57.115Z,49.90
2018-11-26T23:45:26.734Z,50.00
2018-11-26T23:47:55.465Z,49.90
2018-11-26T23:50:23.935Z,50.00
2018-11-26T23:52:52.429Z,50.00
2018-11-26T23:55:23.975Z,50.00
2018-11-26T23:57:52.720Z,50.00
